Alice International Airport Alice US
ICAO: KALI
IATA: ALI
Category: Medium
Scheduled Services: No

Elevation: 178 ft
TransAlt. 18000 ft.

Airport Communications:
KINGSVILLE APP:119.9
ASOS:119.225
KINGSVILLE DEP:119.9
SAN ANGELO RDO:122.6
CTAF/UNICOM:123

KALI Zoom In..

Runways:

(A) RW 13 length 5997 ft width 100 ft
LOC 109.30 / hdg 128

(B) RW 17 length 4490 ft width 100 ft
LOC 109.30 / hdg 173

(C) RW 31 length 5997 ft width 100 ft
LOC 109.30 / hdg 308

(D) RW 35 length 4490 ft width 100 ft
LOC 109.30 / hdg 353

Location; KALI
Day. 23 / Time. 07.53 Zulu
* Altimeter: 29.87
* Temperature: 25° c. 77°f.
* Wind from: 200° Speed 09 kn.
Dewpoint: 23° c.
Visibility: 8 Statute Miles.
Clouds: Clear (automated report).

KALI 230753Z AUTO 20009KT 8SM CLR 25/23 A2987 RMK AO2 SLP111 T02500233


Wind From 200°
Speed 09 kn.

 
 
jpsmedia.com for Web Design worldairports.se 2018   terms of use